createdAt,value
2022-11-11T00:00:50.444Z,9.29
2022-11-11T00:03:35.947Z,9.24
2022-11-11T00:06:21.278Z,9.25
2022-11-11T00:09:06.786Z,9.29
2022-11-11T00:11:52.629Z,9.30
2022-11-11T00:14:37.915Z,9.26
2022-11-11T00:17:41.982Z,9.26
2022-11-11T00:20:46.048Z,9.30
2022-11-11T00:23:50.391Z,9.30
2022-11-11T00:26:40.388Z,9.19
2022-11-11T00:29:26.287Z,9.17
2022-11-11T00:32:23.631Z,9.18
2022-11-11T00:35:28.486Z,9.19
2022-11-11T00:38:33.805Z,9.16
2022-11-11T00:41:21.204Z,9.16
2022-11-11T00:44:06.845Z,9.14
2022-11-11T00:47:10.865Z,9.14
2022-11-11T00:50:15.000Z,9.10
2022-11-11T00:53:01.021Z,9.13
2022-11-11T00:55:46.350Z,9.13
2022-11-11T00:58:31.611Z,9.14
2022-11-11T01:01:17.498Z,9.17
2022-11-11T01:04:03.495Z,9.19
2022-11-11T01:06:49.338Z,9.19
2022-11-11T01:09:34.603Z,9.18
2022-11-11T01:12:20.199Z,9.15
2022-11-11T01:15:06.347Z,9.17
2022-11-11T01:17:51.868Z,9.17
2022-11-11T01:20:38.495Z,9.15
2022-11-11T01:23:24.012Z,9.13
2022-11-11T01:26:31.637Z,9.10
2022-11-11T01:29:17.230Z,9.10
2022-11-11T01:32:02.619Z,9.16
2022-11-11T01:34:47.994Z,9.16
2022-11-11T01:37:39.167Z,9.15
2022-11-11T01:40:24.847Z,9.16
2022-11-11T01:43:13.008Z,9.12
2022-11-11T01:46:00.925Z,9.08
2022-11-11T01:49:08.191Z,9.10
2022-11-11T01:52:02.793Z,9.10
2022-11-11T01:55:08.027Z,9.10
2022-11-11T01:58:15.724Z,9.05
2022-11-11T02:01:02.679Z,9.04
2022-11-11T02:04:08.818Z,9.03
2022-11-11T02:06:58.056Z,9.06
2022-11-11T02:09:47.083Z,9.07
2022-11-11T02:12:51.415Z,9.10
2022-11-11T02:15:38.434Z,9.09
2022-11-11T02:18:24.365Z,9.08
2022-11-11T02:21:20.638Z,9.07
2022-11-11T02:24:10.152Z,9.06
2022-11-11T02:26:58.675Z,9.07
2022-11-11T02:29:48.438Z,9.10
2022-11-11T02:32:34.291Z,9.11
2022-11-11T02:35:26.024Z,9.12
2022-11-11T02:38:12.388Z,9.11
2022-11-11T02:41:16.416Z,9.11
2022-11-11T02:44:02.198Z,9.12
2022-11-11T02:46:47.328Z,9.12
2022-11-11T02:49:32.839Z,9.13
2022-11-11T02:52:17.973Z,9.14
2022-11-11T02:55:04.300Z,9.15
2022-11-11T02:57:50.170Z,9.18
2022-11-11T03:00:35.208Z,9.20
2022-11-11T03:03:20.800Z,9.23
2022-11-11T03:06:06.396Z,9.25
2022-11-11T03:08:52.029Z,9.27
2022-11-11T03:11:38.578Z,9.29
2022-11-11T03:14:24.640Z,9.28
2022-11-11T03:17:29.361Z,9.28
2022-11-11T03:20:37.196Z,9.29
2022-11-11T03:23:22.863Z,9.29
2022-11-11T03:26:09.175Z,9.31
2022-11-11T03:28:54.847Z,9.34
2022-11-11T03:31:40.381Z,9.34
2022-11-11T03:34:25.719Z,9.37
2022-11-11T03:37:31.062Z,9.37
2022-11-11T03:40:16.269Z,9.42
2022-11-11T03:43:04.964Z,9.41
2022-11-11T03:45:54.849Z,9.42
2022-11-11T03:48:40.260Z,9.42
2022-11-11T03:51:25.632Z,9.44
2022-11-11T03:54:10.904Z,9.47
2022-11-11T03:57:18.978Z,9.48
2022-11-11T04:00:12.249Z,9.47
2022-11-11T04:03:25.803Z,9.48
2022-11-11T04:06:30.110Z,9.46
2022-11-11T04:09:34.346Z,9.43
2022-11-11T04:12:19.974Z,9.41
2022-11-11T04:15:23.910Z,9.41
2022-11-11T04:18:09.519Z,9.39
2022-11-11T04:21:23.740Z,9.38
2022-11-11T04:24:43.377Z,9.39
2022-11-11T04:27:28.497Z,9.42
2022-11-11T04:30:13.686Z,9.39
2022-11-11T04:32:58.996Z,9.32
2022-11-11T04:35:49.435Z,9.35
2022-11-11T04:38:53.456Z,9.35
2022-11-11T04:42:01.752Z,9.31
2022-11-11T04:45:02.830Z,9.28
2022-11-11T04:48:10.856Z,9.28
2022-11-11T04:50:57.206Z,9.29
2022-11-11T04:53:42.537Z,9.27
2022-11-11T04:56:46.447Z,9.29
2022-11-11T04:59:31.968Z,9.32
2022-11-11T05:02:36.030Z,9.32
2022-11-11T05:05:23.148Z,9.30
2022-11-11T05:08:27.292Z,9.30
2022-11-11T05:11:12.782Z,9.31
2022-11-11T05:14:18.879Z,9.28
2022-11-11T05:17:23.255Z,9.28
2022-11-11T05:20:28.463Z,9.29
2022-11-11T05:23:13.590Z,9.23
2022-11-11T05:25:59.017Z,9.24
2022-11-11T05:28:44.475Z,9.24
2022-11-11T05:31:30.418Z,9.17
2022-11-11T05:34:15.663Z,9.11
2022-11-11T05:37:01.242Z,9.08
2022-11-11T05:39:46.783Z,9.08
2022-11-11T05:42:32.173Z,9.04
2022-11-11T05:45:17.846Z,9.05
2022-11-11T05:48:03.710Z,9.03
2022-11-11T05:50:48.895Z,9.00
2022-11-11T05:53:34.535Z,9.04
2022-11-11T05:56:20.079Z,9.07
2022-11-11T05:59:06.597Z,9.10
2022-11-11T06:01:52.134Z,9.13
2022-11-11T06:04:37.765Z,9.13
2022-11-11T06:07:23.191Z,9.12
2022-11-11T06:10:28.179Z,9.14
2022-11-11T06:13:15.104Z,9.17
2022-11-11T06:16:01.092Z,9.19
2022-11-11T06:18:46.937Z,9.22
2022-11-11T06:21:52.717Z,9.25
2022-11-11T06:24:38.108Z,9.27
2022-11-11T06:27:23.374Z,9.25
2022-11-11T06:30:38.203Z,9.27
2022-11-11T06:33:14.537Z,9.26
2022-11-11T06:35:59.973Z,9.23
2022-11-11T06:38:45.659Z,9.24
2022-11-11T06:41:31.394Z,9.21
2022-11-11T06:44:16.870Z,9.23
2022-11-11T06:47:02.216Z,9.25
2022-11-11T06:49:47.528Z,9.27
2022-11-11T06:52:33.361Z,9.26
2022-11-11T06:55:19.168Z,9.27
2022-11-11T06:58:16.418Z,9.28
2022-11-11T07:01:05.096Z,9.28
2022-11-11T07:03:50.374Z,9.35
2022-11-11T07:06:35.900Z,9.38
2022-11-11T07:09:23.495Z,9.42
2022-11-11T07:12:09.200Z,9.47
2022-11-11T07:14:54.810Z,9.50
2022-11-11T07:17:40.129Z,9.59
2022-11-11T07:20:25.453Z,9.65
2022-11-11T07:23:10.864Z,9.72
2022-11-11T07:25:56.226Z,9.79
2022-11-11T07:28:42.350Z,9.86
2022-11-11T07:31:28.027Z,9.91
2022-11-11T07:34:13.504Z,9.94
2022-11-11T07:36:59.150Z,9.97
2022-11-11T07:39:44.676Z,10.03
2022-11-11T07:42:31.863Z,10.07
2022-11-11T07:45:17.569Z,10.10
2022-11-11T07:48:03.183Z,10.14
2022-11-11T07:50:48.482Z,10.17
2022-11-11T07:53:33.756Z,10.20
2022-11-11T07:56:19.076Z,10.21
2022-11-11T07:59:04.539Z,10.27
2022-11-11T08:01:50.045Z,10.30
2022-11-11T08:04:35.450Z,10.36
2022-11-11T08:07:23.285Z,10.41
2022-11-11T08:10:10.013Z,10.44
2022-11-11T08:13:13.880Z,10.48
2022-11-11T08:15:59.019Z,10.53
2022-11-11T08:18:44.398Z,10.57
2022-11-11T08:21:29.834Z,10.62
2022-11-11T08:25:01.679Z,10.65
2022-11-11T08:27:21.849Z,10.74
2022-11-11T08:30:09.391Z,10.79
2022-11-11T08:33:32.258Z,10.84
2022-11-11T08:36:20.990Z,10.93
2022-11-11T08:39:07.537Z,11.00
2022-11-11T08:41:53.623Z,11.10
2022-11-11T08:44:39.176Z,11.17
2022-11-11T08:47:25.104Z,11.26
2022-11-11T08:50:11.100Z,11.32
2022-11-11T08:52:57.250Z,11.39
2022-11-11T08:55:42.658Z,11.45
2022-11-11T08:58:28.003Z,11.52
2022-11-11T09:01:14.821Z,11.59
2022-11-11T09:04:16.707Z,11.68
2022-11-11T09:07:07.087Z,11.81
2022-11-11T09:09:52.750Z,11.90
2022-11-11T09:12:38.146Z,11.97
2022-11-11T09:15:24.196Z,12.05
2022-11-11T09:18:10.661Z,12.09
2022-11-11T09:20:58.485Z,12.17
2022-11-11T09:23:43.794Z,12.25
2022-11-11T09:26:29.100Z,12.28
2022-11-11T09:29:14.505Z,12.34
2022-11-11T09:31:59.887Z,12.38
2022-11-11T09:34:45.277Z,12.37
2022-11-11T09:37:30.687Z,12.37
2022-11-11T09:40:21.285Z,12.44
2022-11-11T09:43:18.873Z,12.46
2022-11-11T09:46:22.507Z,12.48
2022-11-11T09:49:20.698Z,12.49
2022-11-11T09:52:18.205Z,12.51
2022-11-11T09:55:12.614Z,12.54
2022-11-11T09:58:20.745Z,12.54
2022-11-11T10:01:15.115Z,12.57
2022-11-11T10:04:06.831Z,12.63
2022-11-11T10:07:00.996Z,12.65
2022-11-11T10:10:00.589Z,12.69
2022-11-11T10:12:53.120Z,12.75
2022-11-11T10:16:05.112Z,12.81
2022-11-11T10:19:15.990Z,12.88
2022-11-11T10:22:19.965Z,12.92
2022-11-11T10:25:08.957Z,12.99
2022-11-11T10:27:59.213Z,13.06
2022-11-11T10:30:46.552Z,13.08
2022-11-11T10:33:46.639Z,13.13
2022-11-11T10:36:37.004Z,13.19
2022-11-11T10:39:32.095Z,13.22
2022-11-11T10:42:18.561Z,13.31
2022-11-11T10:45:30.333Z,13.34
2022-11-11T10:48:21.612Z,13.38
2022-11-11T10:51:07.828Z,13.39
2022-11-11T10:54:09.341Z,13.39
2022-11-11T10:57:24.879Z,13.42
2022-11-11T11:00:12.948Z,13.48
2022-11-11T11:03:13.126Z,13.49
2022-11-11T11:06:02.633Z,13.54
2022-11-11T11:08:54.533Z,13.62
2022-11-11T11:11:52.699Z,13.66
2022-11-11T11:14:43.856Z,13.72
2022-11-11T11:17:36.584Z,13.76
2022-11-11T11:20:22.357Z,13.87
2022-11-11T11:23:07.976Z,13.93
2022-11-11T11:25:55.533Z,14.03
2022-11-11T11:29:10.198Z,14.15
2022-11-11T11:31:56.314Z,14.26
2022-11-11T11:34:49.712Z,14.33
2022-11-11T11:37:50.415Z,14.38
2022-11-11T11:40:56.382Z,14.42
2022-11-11T11:43:46.060Z,14.51
2022-11-11T11:46:40.956Z,14.58
2022-11-11T11:49:38.378Z,14.69
2022-11-11T11:52:47.224Z,14.81
2022-11-11T11:55:44.102Z,14.93
2022-11-11T11:58:39.832Z,14.98
2022-11-11T12:01:57.031Z,15.03
2022-11-11T12:04:55.292Z,15.03
2022-11-11T12:08:02.570Z,14.97
2022-11-11T12:11:15.881Z,14.89
2022-11-11T12:14:22.943Z,14.86
2022-11-11T12:17:44.231Z,14.82
2022-11-11T12:21:04.404Z,14.85
2022-11-11T12:23:55.672Z,14.89
2022-11-11T12:26:47.141Z,14.95
2022-11-11T12:30:02.559Z,14.97
2022-11-11T12:33:10.164Z,15.05
2022-11-11T12:36:07.885Z,15.17
2022-11-11T12:39:46.061Z,15.19
2022-11-11T12:42:53.661Z,15.15
2022-11-11T12:45:57.208Z,15.13
2022-11-11T12:48:53.504Z,15.07
2022-11-11T12:52:08.714Z,15.09
2022-11-11T12:55:26.815Z,15.05
2022-11-11T12:58:29.716Z,15.03
2022-11-11T13:01:33.336Z,15.04
2022-11-11T13:04:45.117Z,15.04
2022-11-11T13:07:55.431Z,15.08
2022-11-11T13:10:52.398Z,15.12
2022-11-11T13:13:53.315Z,15.13
2022-11-11T13:16:39.101Z,15.19
2022-11-11T13:19:33.682Z,15.33
2022-11-11T13:22:28.320Z,15.36
2022-11-11T13:25:26.368Z,15.44
2022-11-11T13:28:20.849Z,15.43
2022-11-11T13:31:09.175Z,15.44
2022-11-11T13:33:58.506Z,15.45
2022-11-11T13:36:49.029Z,15.46
2022-11-11T13:39:40.087Z,15.45
2022-11-11T13:42:31.690Z,15.40
2022-11-11T13:45:28.155Z,15.37
2022-11-11T13:48:25.021Z,15.37
2022-11-11T13:51:24.995Z,15.29
2022-11-11T13:54:33.175Z,15.23
2022-11-11T13:57:22.530Z,15.13
2022-11-11T14:00:26.614Z,15.04
2022-11-11T14:03:20.469Z,14.97
2022-11-11T14:06:15.613Z,14.86
2022-11-11T14:09:02.116Z,14.77
2022-11-11T14:11:48.310Z,14.72
2022-11-11T14:14:37.776Z,14.73
2022-11-11T14:17:51.319Z,14.69
2022-11-11T14:20:42.722Z,14.61
2022-11-11T14:23:37.326Z,14.50
2022-11-11T14:26:27.847Z,14.43
2022-11-11T14:29:20.832Z,14.34
2022-11-11T14:32:31.555Z,14.19
2022-11-11T14:35:38.623Z,14.06
2022-11-11T14:38:45.866Z,13.95
2022-11-11T14:41:52.047Z,13.86
2022-11-11T14:44:38.140Z,13.82
2022-11-11T14:47:41.518Z,13.68
2022-11-11T14:50:33.866Z,13.58
2022-11-11T14:53:25.981Z,13.45
2022-11-11T14:56:18.601Z,13.43
2022-11-11T14:59:10.393Z,13.43
2022-11-11T15:01:59.437Z,13.42
2022-11-11T15:04:45.529Z,13.40
2022-11-11T15:07:59.769Z,13.39
2022-11-11T15:11:08.273Z,13.36
2022-11-11T15:14:00.783Z,13.29
2022-11-11T15:17:24.592Z,13.21
2022-11-11T15:20:46.989Z,13.16
2022-11-11T15:23:38.100Z,13.15
2022-11-11T15:26:36.551Z,13.13
2022-11-11T15:29:40.827Z,13.09
2022-11-11T15:32:46.598Z,13.06
2022-11-11T15:35:40.620Z,13.04
2022-11-11T15:38:26.903Z,13.04
2022-11-11T15:41:24.612Z,13.03
2022-11-11T15:44:19.609Z,13.00
2022-11-11T15:47:07.186Z,12.97
2022-11-11T15:49:53.158Z,12.97
2022-11-11T15:52:39.134Z,12.97
2022-11-11T15:55:25.638Z,12.87
2022-11-11T15:58:30.981Z,12.82
2022-11-11T16:01:16.909Z,12.83
2022-11-11T16:04:22.591Z,12.75
2022-11-11T16:07:30.083Z,12.70
2022-11-11T16:10:26.873Z,12.64
2022-11-11T16:13:20.532Z,12.61
2022-11-11T16:16:23.364Z,12.59
2022-11-11T16:19:34.864Z,12.58
2022-11-11T16:22:32.965Z,12.54
2022-11-11T16:25:22.682Z,12.52
2022-11-11T16:28:12.172Z,12.48
2022-11-11T16:30:58.877Z,12.46
2022-11-11T16:33:46.543Z,12.46
2022-11-11T16:36:31.869Z,12.46
2022-11-11T16:39:21.472Z,12.48
2022-11-11T16:42:22.009Z,12.52
2022-11-11T16:45:20.604Z,12.51
2022-11-11T16:48:06.106Z,12.53
2022-11-11T16:51:05.041Z,12.54
2022-11-11T16:54:07.499Z,12.55
2022-11-11T16:56:57.359Z,12.53
2022-11-11T16:59:48.158Z,12.56
2022-11-11T17:02:34.750Z,12.57
2022-11-11T17:05:40.060Z,12.58
2022-11-11T17:08:40.577Z,12.57
2022-11-11T17:11:45.995Z,12.55
2022-11-11T17:14:36.953Z,12.52
2022-11-11T17:17:22.542Z,12.49
2022-11-11T17:20:12.595Z,12.48
2022-11-11T17:22:58.874Z,12.48
2022-11-11T17:25:44.989Z,12.48
2022-11-11T17:28:32.263Z,12.47
2022-11-11T17:31:17.409Z,12.42
2022-11-11T17:34:07.623Z,12.40
2022-11-11T17:36:53.119Z,12.36
2022-11-11T17:39:43.292Z,12.32
2022-11-11T17:42:32.768Z,12.23
2022-11-11T17:45:19.939Z,12.20
2022-11-11T17:48:08.257Z,12.16
2022-11-11T17:50:56.112Z,12.13
2022-11-11T17:53:53.216Z,12.10
2022-11-11T17:56:41.920Z,12.07
2022-11-11T17:59:27.830Z,12.00
2022-11-11T18:02:14.317Z,11.93
2022-11-11T18:05:02.068Z,11.84
2022-11-11T18:07:48.607Z,11.70
2022-11-11T18:10:34.225Z,11.62
2022-11-11T18:13:19.964Z,11.63
2022-11-11T18:16:07.294Z,11.67
2022-11-11T18:18:54.837Z,11.63
2022-11-11T18:21:42.747Z,11.59
2022-11-11T18:24:31.358Z,11.56
2022-11-11T18:27:17.523Z,11.55
2022-11-11T18:30:03.771Z,11.54
2022-11-11T18:32:50.901Z,11.54
2022-11-11T18:35:36.664Z,11.54
2022-11-11T18:38:22.747Z,11.57
2022-11-11T18:41:17.163Z,11.59
2022-11-11T18:44:03.592Z,11.58
2022-11-11T18:46:49.856Z,11.55
2022-11-11T18:49:36.164Z,11.58
2022-11-11T18:52:22.541Z,11.64
2022-11-11T18:55:09.329Z,11.67
2022-11-11T18:57:55.455Z,11.68
2022-11-11T19:00:41.581Z,11.65
2022-11-11T19:03:27.631Z,11.61
2022-11-11T19:06:13.758Z,11.61
2022-11-11T19:09:02.395Z,11.61
2022-11-11T19:11:47.901Z,11.62
2022-11-11T19:14:33.308Z,11.61
2022-11-11T19:17:18.598Z,11.63
2022-11-11T19:20:06.056Z,11.62
2022-11-11T19:22:51.364Z,11.59
2022-11-11T19:25:37.247Z,11.56
2022-11-11T19:28:22.666Z,11.50
2022-11-11T19:31:13.247Z,11.44
2022-11-11T19:33:59.087Z,11.38
2022-11-11T19:36:44.581Z,11.29
2022-11-11T19:39:29.999Z,11.29
2022-11-11T19:42:16.104Z,11.28
2022-11-11T19:45:02.752Z,11.15
2022-11-11T19:47:49.909Z,10.98
2022-11-11T19:50:35.290Z,10.86
2022-11-11T19:53:20.830Z,10.72
2022-11-11T19:56:15.197Z,10.75
2022-11-11T19:59:03.349Z,10.80
2022-11-11T20:01:48.904Z,10.82
2022-11-11T20:04:34.363Z,10.91
2022-11-11T20:07:19.739Z,11.02
2022-11-11T20:10:06.237Z,11.03
2022-11-11T20:12:52.985Z,11.02
2022-11-11T20:15:38.424Z,10.99
2022-11-11T20:18:23.929Z,10.95
2022-11-11T20:21:09.475Z,10.98
2022-11-11T20:23:55.630Z,11.03
2022-11-11T20:26:41.277Z,11.03
2022-11-11T20:29:27.178Z,11.04
2022-11-11T20:32:12.221Z,11.09
2022-11-11T20:34:57.923Z,11.08
2022-11-11T20:37:43.623Z,11.04
2022-11-11T20:40:28.978Z,10.93
2022-11-11T20:43:14.455Z,10.91
2022-11-11T20:46:03.163Z,10.85
2022-11-11T20:48:50.714Z,10.82
2022-11-11T20:51:36.267Z,10.83
2022-11-11T20:54:22.025Z,10.87
2022-11-11T20:57:07.372Z,10.87
2022-11-11T20:59:52.914Z,10.89
2022-11-11T21:02:38.195Z,10.91
2022-11-11T21:05:23.838Z,10.96
2022-11-11T21:08:09.316Z,10.97
2022-11-11T21:10:56.162Z,11.01
2022-11-11T21:13:45.832Z,10.98
2022-11-11T21:16:32.449Z,10.97
2022-11-11T21:19:18.082Z,10.99
2022-11-11T21:22:08.910Z,10.99
2022-11-11T21:24:55.974Z,11.00
2022-11-11T21:27:41.524Z,11.03
2022-11-11T21:30:26.862Z,11.06
2022-11-11T21:33:12.291Z,11.05
2022-11-11T21:36:22.226Z,11.05
2022-11-11T21:39:09.861Z,10.86
2022-11-11T21:41:55.114Z,10.73
2022-11-11T21:44:41.102Z,10.66
2022-11-11T21:47:26.580Z,10.54
2022-11-11T21:50:12.131Z,10.45
2022-11-11T21:52:57.878Z,10.38
2022-11-11T21:55:43.195Z,10.26
2022-11-11T21:58:29.279Z,10.17
2022-11-11T22:01:19.603Z,10.10
2022-11-11T22:04:08.025Z,10.08
2022-11-11T22:06:53.328Z,10.12
2022-11-11T22:09:39.229Z,10.09
2022-11-11T22:12:25.750Z,10.10
2022-11-11T22:15:11.081Z,10.20
2022-11-11T22:17:56.533Z,10.18
2022-11-11T22:20:41.794Z,10.24
2022-11-11T22:23:27.268Z,10.27
2022-11-11T22:26:12.738Z,10.30
2022-11-11T22:28:58.627Z,10.39
2022-11-11T22:31:44.888Z,10.45
2022-11-11T22:34:30.969Z,10.48
2022-11-11T22:37:19.218Z,10.51
2022-11-11T22:40:05.214Z,10.57
2022-11-11T22:42:50.498Z,10.62
2022-11-11T22:45:35.950Z,10.61
2022-11-11T22:48:21.771Z,10.56
2022-11-11T22:51:14.078Z,10.45
2022-11-11T22:54:05.099Z,10.47
2022-11-11T22:56:50.681Z,10.48
2022-11-11T22:59:36.239Z,10.50
2022-11-11T23:02:21.678Z,10.48
2022-11-11T23:05:07.297Z,10.52
2022-11-11T23:07:54.117Z,10.48
2022-11-11T23:10:39.691Z,10.46
2022-11-11T23:13:25.066Z,10.44
2022-11-11T23:16:13.145Z,10.51
2022-11-11T23:19:00.574Z,10.48
2022-11-11T23:21:46.921Z,10.44
2022-11-11T23:24:32.235Z,10.40
2022-11-11T23:27:17.832Z,10.39
2022-11-11T23:30:04.019Z,10.40
2022-11-11T23:32:53.113Z,10.46
2022-11-11T23:35:39.379Z,10.45
2022-11-11T23:38:24.977Z,10.45
2022-11-11T23:41:11.608Z,10.42
2022-11-11T23:43:58.439Z,10.32
2022-11-11T23:46:44.962Z,10.30
2022-11-11T23:49:30.703Z,10.24
2022-11-11T23:52:16.496Z,10.27
2022-11-11T23:55:02.528Z,10.32
2022-11-11T23:57:48.262Z,10.37
